Aeroporto :
LOGIN :

Iscrizione | Disclaimer

   EN    FR    IT 

 










Sommario :    VFR   VFR Marginale   IFR   IFR Intensivo   IFR Molto Intensivo
Visibilità : 
Base nubi : 
>= 8 km
>= 3000ft
5 / 8 km
1000 / 3000 ft
1500m / 5 km
500 / 1000 ft
800 / 1500m
200 / 500 ft
< 800m
< 200 ft
Simboli :   Temporali  Nebbia  Neve Forte  Precipitazioni Forti  Vento > 20 kt
SIGMETs :   Varie  Temporali  Ghiacco  Turbolenza  Onda orograficha  Ceneri Vulcaniche







- Altitudine del aeroporto : 288 ft
- Codice IATA : BZZ


EGVN - RAF Brize Norton

ULTIMO METAR :
  • 121250Z 13001KT CAVOK 00/M02 Q1008 NOSIG

METARs OBSOLETI :
  • 121150Z 21002KT CAVOK 00/M02 Q1008 BLU NOSIG
  • 121050Z 28003KT 7000 HZ BKN300 M01/M03 Q1009 WHT BECMG 9999 NSW BLU

TAF TAF EGVN
Valido dal 12 a 12 ore il 13 a 12 ore UTC


121045Z 1212/1312 24005KT 9999 FEW035
BECMG 1219/1222 5000 -RA BKN012
TEMPO 1222/1302 3000 RADZ BKN004
BECMG 1302/1305 9999 NSW FEW012
PROB30 1305/1308 4000 BR BKN004
BECMG 1308/1310 BKN008
TEMPO 1308/1312 25016G26KT 4000 -RA BKN005
PROB30
TEMPO 1308/1311 3500 RA BKN003
Nessun NOTAM noto per questo aeroporto.
1 SIGMET conosciuto per la FIR London (EGTT) :
 
Turbolenza severa
EGTT SIGMET 02 VALID 121100/121500 EGRR
EGTT LONDON FIR SEV TURB FCST WI N5100 W00754 - N5207 W00548 - N4929 W00441 - N4926 W00456 - N4856 W00729 - N5100 W00754 FL200/420 MOV E 05KT NC=



MetMap, La meteo Aeronautica in un colpo d'occhio ! - Copyright ORBIFLY Dicembre 2007 - Disclaimer

ORBIFLY MET'MAP TEAM :

Programmazione e sviluppo : Alexandra Zaïnal
Concezione e sviluppo : Baudouin d'Aumeries
Co-Programmazione e sviluppo : Marc-Olivier Méhu
Supporto tecnico e logistico : Manuel Goepfert
Aiuto per la traduzione : Arnaldo La Scala

Contatto : metmap@orbifly.com




FONTI E CREDITI :

   NOAA